createdAt,value
2022-07-27T00:05:00.015Z,3.20
2022-07-27T00:10:01.683Z,3.22
2022-07-27T00:15:04.993Z,2.83
2022-07-27T00:20:07.276Z,2.72
2022-07-27T00:25:09.142Z,2.33
2022-07-27T00:30:10.952Z,2.58
2022-07-27T00:35:12.674Z,2.30
2022-07-27T00:40:16.195Z,2.25
2022-07-27T00:45:18.084Z,2.17
2022-07-27T00:50:19.796Z,2.15
2022-07-27T00:55:22.091Z,1.77
2022-07-27T01:00:24.356Z,1.70
2022-07-27T01:05:35.834Z,1.63
2022-07-27T01:10:40.069Z,1.70
2022-07-27T01:15:46.654Z,1.60
2022-07-27T01:20:48.326Z,1.60
2022-07-27T01:25:50.150Z,1.50
2022-07-27T01:30:51.928Z,1.77
2022-07-27T01:35:57.613Z,1.55
2022-07-27T01:40:59.371Z,1.63
2022-07-27T01:46:01.793Z,1.40
2022-07-27T01:51:03.468Z,1.77
2022-07-27T01:56:12.837Z,1.63
2022-07-27T02:01:14.656Z,1.30
2022-07-27T02:06:16.396Z,1.30
2022-07-27T02:11:39.830Z,1.25
2022-07-27T02:16:42.334Z,1.65
2022-07-27T02:21:44.393Z,1.60
2022-07-27T02:26:46.206Z,1.55
2022-07-27T02:31:51.166Z,1.63
2022-07-27T02:36:53.899Z,1.50
2022-07-27T02:41:55.939Z,1.75
2022-07-27T02:47:01.170Z,1.52
2022-07-27T02:52:05.644Z,1.27
2022-07-27T02:57:07.676Z,1.30
2022-07-27T03:02:12.815Z,1.52
2022-07-27T03:07:15.047Z,1.40
2022-07-27T03:12:16.695Z,1.42
2022-07-27T03:17:18.502Z,1.20
2022-07-27T03:22:20.138Z,1.50
2022-07-27T03:27:21.973Z,1.30
2022-07-27T03:32:23.625Z,1.70
2022-07-27T03:37:25.652Z,0.98
2022-07-27T03:42:27.586Z,1.40
2022-07-27T03:47:29.224Z,1.52
2022-07-27T03:52:34.232Z,1.40
2022-07-27T03:57:38.414Z,1.40
2022-07-27T04:02:40.954Z,1.48
2022-07-27T04:07:42.784Z,1.50
2022-07-27T04:12:45.300Z,1.33
2022-07-27T04:17:55.570Z,1.60
2022-07-27T04:22:58.961Z,1.45
2022-07-27T04:28:01.673Z,1.60
2022-07-27T04:33:07.687Z,1.40
2022-07-27T04:38:13.031Z,1.50
2022-07-27T04:43:14.953Z,1.30
2022-07-27T04:48:16.606Z,2.45
2022-07-27T04:53:19.274Z,1.58
2022-07-27T04:58:21.997Z,1.20
2022-07-27T05:03:23.877Z,1.65
2022-07-27T05:08:28.519Z,1.42
2022-07-27T05:13:31.335Z,1.70
2022-07-27T05:18:33.662Z,1.90
2022-07-27T05:23:36.526Z,1.70
2022-07-27T05:28:41.972Z,1.52
2022-07-27T05:33:58.112Z,1.70
2022-07-27T05:39:00.762Z,1.55
2022-07-27T05:44:10.442Z,1.70
2022-07-27T05:49:13.440Z,1.52
2022-07-27T05:54:15.505Z,2.15
2022-07-27T05:59:17.225Z,1.35
2022-07-27T06:04:18.837Z,1.40
2022-07-27T06:09:20.448Z,1.63
2022-07-27T06:14:22.148Z,1.65
2022-07-27T06:19:23.839Z,1.70
2022-07-27T06:24:38.668Z,1.90
2022-07-27T06:29:40.813Z,1.33
2022-07-27T06:34:45.640Z,1.35
2022-07-27T06:39:49.014Z,1.77
2022-07-27T06:44:50.987Z,1.60
2022-07-27T06:49:52.976Z,1.77
2022-07-27T06:54:54.668Z,1.55
2022-07-27T06:59:56.437Z,1.77
2022-07-27T07:04:59.306Z,2.00
2022-07-27T07:10:04.503Z,1.70
2022-07-27T07:15:08.038Z,1.70
2022-07-27T07:20:10.276Z,2.03
2022-07-27T07:25:12.455Z,1.90
2022-07-27T07:30:14.642Z,2.20
2022-07-27T07:35:16.959Z,2.00
2022-07-27T07:45:49.916Z,2.13
2022-07-27T07:50:53.983Z,2.08
2022-07-27T07:55:56.788Z,1.80
2022-07-27T08:00:58.564Z,2.40
2022-07-27T08:06:00.323Z,2.72
2022-07-27T08:11:03.506Z,1.88
2022-07-27T08:16:05.887Z,2.33
2022-07-27T08:21:07.649Z,2.30
2022-07-27T08:26:09.378Z,2.05
2022-07-27T08:31:15.202Z,2.30
2022-07-27T08:36:20.817Z,1.90
2022-07-27T08:41:25.711Z,2.13
2022-07-27T08:46:27.561Z,1.83
2022-07-27T08:51:30.004Z,2.15
2022-07-27T08:56:31.681Z,1.90
2022-07-27T09:01:36.039Z,1.65
2022-07-27T09:06:54.211Z,1.70
2022-07-27T09:12:27.054Z,1.88
2022-07-27T09:17:47.840Z,1.80
2022-07-27T09:22:56.161Z,0.90
2022-07-27T09:27:59.547Z,1.40
2022-07-27T09:33:04.606Z,0.95
2022-07-27T09:38:24.402Z,1.13
2022-07-27T09:44:28.443Z,0.80
2022-07-27T09:48:47.959Z,1.10
2022-07-27T09:53:50.072Z,1.00
2022-07-27T09:58:56.759Z,1.17
2022-07-27T10:04:08.978Z,1.02
2022-07-27T10:09:11.113Z,0.85
2022-07-27T10:14:13.142Z,0.75
2022-07-27T10:19:20.424Z,1.10
2022-07-27T10:24:32.823Z,1.10
2022-07-27T10:29:34.539Z,0.90
2022-07-27T10:34:40.823Z,0.75
2022-07-27T10:40:23.110Z,0.80
2022-07-27T10:46:00.797Z,1.13
2022-07-27T10:51:01.746Z,1.00
2022-07-27T10:56:05.396Z,1.20
2022-07-27T11:01:07.537Z,0.90
2022-07-27T11:06:31.974Z,1.13
2022-07-27T11:11:37.891Z,1.05
2022-07-27T11:16:54.996Z,0.85
2022-07-27T11:21:58.281Z,1.15
2022-07-27T11:26:59.874Z,1.35
2022-07-27T11:32:02.822Z,1.00
2022-07-27T11:37:13.938Z,1.00
2022-07-27T11:42:21.213Z,0.90
2022-07-27T11:47:26.381Z,1.20
2022-07-27T11:52:28.017Z,0.70
2022-07-27T11:57:33.846Z,0.70
2022-07-27T12:02:35.550Z,0.80
2022-07-27T12:07:37.428Z,0.82
2022-07-27T12:12:39.061Z,0.80
2022-07-27T12:17:42.770Z,0.93
2022-07-27T12:22:53.526Z,0.95
2022-07-27T12:27:58.186Z,1.33
2022-07-27T12:33:00.771Z,1.63
2022-07-27T12:38:06.509Z,1.40
2022-07-27T12:43:09.814Z,1.60
2022-07-27T12:48:16.672Z,1.30
2022-07-27T12:53:18.399Z,1.50
2022-07-27T12:58:20.182Z,1.70
2022-07-27T13:03:22.587Z,1.65
2022-07-27T13:08:25.334Z,1.17
2022-07-27T13:13:27.115Z,1.40
2022-07-27T13:18:32.202Z,1.70
2022-07-27T13:23:34.073Z,1.67
2022-07-27T13:28:36.548Z,1.40
2022-07-27T13:33:38.128Z,1.70
2022-07-27T13:38:40.217Z,1.70
2022-07-27T13:43:41.908Z,1.45
2022-07-27T13:48:43.877Z,1.70
2022-07-27T13:53:45.595Z,1.48
2022-07-27T13:58:47.329Z,1.77
2022-07-27T14:03:48.972Z,1.60
2022-07-27T14:08:50.747Z,1.30
2022-07-27T14:13:52.419Z,1.80
2022-07-27T14:18:54.042Z,1.50
2022-07-27T14:23:55.842Z,1.58
2022-07-27T14:28:58.987Z,1.20
2022-07-27T14:34:00.660Z,1.30
2022-07-27T14:39:02.286Z,1.40
2022-07-27T14:44:04.662Z,1.15
2022-07-27T14:49:08.499Z,1.48
2022-07-27T14:54:10.550Z,1.30
2022-07-27T14:59:12.528Z,1.10
2022-07-27T15:04:14.307Z,1.23
2022-07-27T15:09:16.528Z,1.48
2022-07-27T15:14:18.556Z,1.30
2022-07-27T15:19:20.329Z,1.05
2022-07-27T15:24:22.280Z,1.00
2022-07-27T15:29:23.918Z,1.20
2022-07-27T15:34:25.714Z,1.10
2022-07-27T15:39:27.394Z,1.42
2022-07-27T15:44:29.007Z,1.25
2022-07-27T15:49:30.766Z,0.95
2022-07-27T15:54:38.222Z,1.10
2022-07-27T15:59:43.920Z,0.95
2022-07-27T16:04:47.205Z,1.10
2022-07-27T16:09:49.040Z,1.00
2022-07-27T16:14:50.637Z,0.80
2022-07-27T16:19:52.240Z,1.05
2022-07-27T16:24:54.053Z,1.00
2022-07-27T16:29:55.836Z,0.93
2022-07-27T16:34:57.532Z,0.85
2022-07-27T16:39:59.839Z,1.13
2022-07-27T16:45:01.464Z,0.90
2022-07-27T16:50:08.697Z,0.90
2022-07-27T16:55:10.351Z,0.90
2022-07-27T17:00:12.588Z,1.00
2022-07-27T17:05:14.280Z,1.00
2022-07-27T17:10:26.591Z,1.02
2022-07-27T17:15:29.089Z,1.17
2022-07-27T17:20:35.383Z,1.02
2022-07-27T17:25:37.884Z,1.05
2022-07-27T17:30:39.457Z,0.85
2022-07-27T17:35:41.100Z,1.08
2022-07-27T17:40:47.139Z,0.93
2022-07-27T17:45:49.410Z,1.00
2022-07-27T17:50:51.089Z,1.02
2022-07-27T17:55:53.930Z,0.85
2022-07-27T18:00:55.744Z,0.85
2022-07-27T18:05:57.433Z,1.27
2022-07-27T18:10:59.284Z,1.20
2022-07-27T18:16:00.953Z,1.40
2022-07-27T18:21:02.953Z,1.05
2022-07-27T18:26:04.774Z,0.90
2022-07-27T18:31:12.439Z,1.08
2022-07-27T18:36:18.189Z,1.20
2022-07-27T18:41:30.076Z,1.30
2022-07-27T18:46:36.719Z,1.30
2022-07-27T18:52:06.360Z,1.63
2022-07-27T18:57:10.742Z,1.95
2022-07-27T19:02:12.743Z,1.75
2022-07-27T19:07:15.740Z,1.45
2022-07-27T19:12:17.918Z,1.58
2022-07-27T19:17:20.006Z,1.45
2022-07-27T19:22:21.685Z,1.08
2022-07-27T19:27:24.001Z,1.10
2022-07-27T19:32:26.843Z,1.38
2022-07-27T19:37:31.018Z,1.30
2022-07-27T19:42:32.703Z,1.50
2022-07-27T19:47:35.372Z,1.50
2022-07-27T19:52:38.993Z,1.52
2022-07-27T19:57:41.609Z,1.52
2022-07-27T20:02:44.570Z,1.48
2022-07-27T20:07:49.561Z,1.30
2022-07-27T20:12:52.036Z,1.67
2022-07-27T20:17:53.680Z,1.42
2022-07-27T20:22:55.519Z,1.50
2022-07-27T20:27:57.203Z,1.50
2022-07-27T20:32:58.820Z,1.42
2022-07-27T20:38:00.481Z,1.92
2022-07-27T20:43:02.097Z,1.58
2022-07-27T20:48:03.951Z,1.52
2022-07-27T20:53:05.583Z,1.48
2022-07-27T20:58:07.272Z,1.73
2022-07-27T21:03:08.942Z,1.65
2022-07-27T21:08:11.004Z,1.40
2022-07-27T21:13:12.612Z,1.50
2022-07-27T21:18:15.021Z,1.70
2022-07-27T21:23:35.883Z,1.80
2022-07-27T21:28:37.465Z,1.58
2022-07-27T21:33:43.011Z,1.30
2022-07-27T21:38:44.784Z,1.52
2022-07-27T21:43:49.935Z,1.50
2022-07-27T21:48:51.630Z,1.75
2022-07-27T21:53:53.359Z,1.58
2022-07-27T21:58:55.109Z,1.60
2022-07-27T22:03:57.235Z,1.50
2022-07-27T22:08:58.899Z,1.45
2022-07-27T22:14:00.801Z,1.33
2022-07-27T22:19:02.438Z,1.33
2022-07-27T22:24:04.474Z,1.40
2022-07-27T22:29:06.288Z,1.38
2022-07-27T22:34:07.996Z,1.75
2022-07-27T22:39:09.588Z,1.70
2022-07-27T22:44:11.997Z,1.63
2022-07-27T22:49:14.036Z,1.83
2022-07-27T22:54:16.768Z,1.40
2022-07-27T22:59:19.486Z,1.35
2022-07-27T23:04:21.150Z,1.45
2022-07-27T23:09:23.269Z,1.60
2022-07-27T23:14:26.037Z,1.40
2022-07-27T23:19:27.737Z,1.38
2022-07-27T23:24:29.942Z,1.48
2022-07-27T23:29:31.593Z,1.38
2022-07-27T23:34:33.260Z,1.70
2022-07-27T23:39:34.936Z,1.50
2022-07-27T23:44:36.575Z,1.55
2022-07-27T23:49:38.204Z,1.80
2022-07-27T23:54:40.029Z,1.50
2022-07-27T23:59:41.734Z,1.70
